createdAt,value
2022-09-13T00:02:02.744Z,12.27
2022-09-13T00:04:31.688Z,13.13
2022-09-13T00:06:58.416Z,14.50
2022-09-13T00:09:27.433Z,16.93
2022-09-13T00:11:54.224Z,15.93
2022-09-13T00:14:21.002Z,16.50
2022-09-13T00:16:50.311Z,16.57
2022-09-13T00:19:17.033Z,13.33
2022-09-13T00:21:46.251Z,18.93
2022-09-13T00:24:13.028Z,12.63
2022-09-13T00:26:39.965Z,11.20
2022-09-13T00:29:06.916Z,14.07
2022-09-13T00:31:36.047Z,13.47
2022-09-13T00:34:02.950Z,14.40
2022-09-13T00:36:29.653Z,16.67
2022-09-13T00:38:59.357Z,15.23
2022-09-13T00:41:26.077Z,15.03
2022-09-13T00:43:56.492Z,15.03
2022-09-13T00:46:26.445Z,17.00
2022-09-13T00:48:55.631Z,14.33
2022-09-13T00:51:22.363Z,14.00
2022-09-13T00:53:50.790Z,19.93
2022-09-13T00:56:28.339Z,16.53
2022-09-13T00:59:01.908Z,14.93
2022-09-13T01:01:37.029Z,15.93
2022-09-13T01:04:12.480Z,16.97
2022-09-13T01:06:41.968Z,23.20
2022-09-13T01:09:08.806Z,17.60
2022-09-13T01:11:49.217Z,15.37
2022-09-13T01:14:20.411Z,14.27
2022-09-13T01:16:49.258Z,15.03
2022-09-13T01:19:16.112Z,18.00
2022-09-13T01:21:51.871Z,19.83
2022-09-13T01:24:37.000Z,13.93
2022-09-13T01:27:31.631Z,13.67
2022-09-13T01:30:11.690Z,13.07
2022-09-13T01:32:47.656Z,14.03
2022-09-13T01:35:40.638Z,17.77
2022-09-13T01:38:07.384Z,17.63
2022-09-13T01:41:06.136Z,14.97
2022-09-13T01:43:54.519Z,15.37
2022-09-13T01:46:45.416Z,16.53
2022-09-13T01:49:17.526Z,15.27
2022-09-13T01:51:49.649Z,17.67
2022-09-13T01:54:32.698Z,15.33
2022-09-13T01:57:13.718Z,21.73
2022-09-13T01:59:46.569Z,17.93
2022-09-13T02:02:18.467Z,15.57
2022-09-13T02:04:48.303Z,17.70
2022-09-13T02:07:28.053Z,17.70
2022-09-13T02:10:02.412Z,14.37
2022-09-13T02:12:31.941Z,17.30
2022-09-13T02:15:14.989Z,14.73
2022-09-13T02:17:44.185Z,17.97
2022-09-13T02:20:17.788Z,16.43
2022-09-13T02:22:47.028Z,15.80
2022-09-13T02:25:19.301Z,16.57
2022-09-13T02:27:49.881Z,18.10
2022-09-13T02:30:17.650Z,18.87
2022-09-13T02:32:59.862Z,14.97
2022-09-13T02:35:38.839Z,15.33
2022-09-13T02:38:17.556Z,17.37
2022-09-13T02:40:48.095Z,17.40
2022-09-13T02:43:45.220Z,14.83
2022-09-13T02:46:49.689Z,16.63
2022-09-13T02:49:51.617Z,19.70
2022-09-13T02:52:33.679Z,16.57
2022-09-13T02:55:06.494Z,17.27
2022-09-13T02:57:39.137Z,14.73
2022-09-13T03:00:08.639Z,15.07
2022-09-13T03:02:35.420Z,13.10
2022-09-13T03:05:04.832Z,14.37
2022-09-13T03:07:34.138Z,15.00
2022-09-13T03:10:11.389Z,13.97
2022-09-13T03:12:59.562Z,12.40
2022-09-13T03:16:06.218Z,14.53
2022-09-13T03:19:00.969Z,16.03
2022-09-13T03:21:41.224Z,11.83
2022-09-13T03:24:33.066Z,12.03
2022-09-13T03:27:36.762Z,13.83
2022-09-13T03:30:08.198Z,12.10
2022-09-13T03:32:34.920Z,11.27
2022-09-13T03:35:22.880Z,15.17
2022-09-13T03:38:35.440Z,11.00
2022-09-13T03:41:17.189Z,11.30
2022-09-13T03:43:50.479Z,14.23
2022-09-13T03:46:23.972Z,11.93
2022-09-13T03:48:53.234Z,12.60
2022-09-13T03:51:20.030Z,10.13
2022-09-13T03:53:56.702Z,12.80
2022-09-13T03:56:32.702Z,11.37
2022-09-13T03:58:59.458Z,13.90
2022-09-13T04:01:26.374Z,18.93
2022-09-13T04:03:56.643Z,13.57
2022-09-13T04:06:26.719Z,11.67
2022-09-13T04:08:53.466Z,11.07
2022-09-13T04:11:21.665Z,12.07
2022-09-13T04:13:48.497Z,10.80
2022-09-13T04:16:17.789Z,14.10
2022-09-13T04:18:44.539Z,11.33
2022-09-13T04:21:11.761Z,10.90
2022-09-13T04:23:38.728Z,12.27
2022-09-13T04:26:06.276Z,12.97
2022-09-13T04:28:33.013Z,12.47
2022-09-13T04:30:59.811Z,12.23
2022-09-13T04:33:26.536Z,12.20
2022-09-13T04:35:59.944Z,10.63
2022-09-13T04:38:27.086Z,14.07
2022-09-13T04:40:56.791Z,14.43
2022-09-13T04:43:23.623Z,12.27
2022-09-13T04:45:50.513Z,11.70
2022-09-13T04:48:17.385Z,14.57
2022-09-13T04:50:44.942Z,11.87
2022-09-13T04:53:14.189Z,10.53
2022-09-13T04:55:40.927Z,13.17
2022-09-13T04:58:07.680Z,13.13
2022-09-13T05:00:39.130Z,12.20
2022-09-13T05:03:05.935Z,11.60
2022-09-13T05:05:32.671Z,17.23
2022-09-13T05:07:59.546Z,14.20
2022-09-13T05:10:27.772Z,17.67
2022-09-13T05:12:56.982Z,12.57
2022-09-13T05:15:25.995Z,13.73
2022-09-13T05:17:55.255Z,13.53
2022-09-13T05:20:22.032Z,12.00
2022-09-13T05:22:53.667Z,13.57
2022-09-13T05:25:25.986Z,14.37
2022-09-13T05:27:53.295Z,13.87
2022-09-13T05:30:20.080Z,12.50
2022-09-13T05:32:46.883Z,14.53
2022-09-13T05:35:13.903Z,14.67
2022-09-13T05:37:43.257Z,16.37
2022-09-13T05:40:12.966Z,13.33
2022-09-13T05:42:42.364Z,16.67
2022-09-13T05:45:11.528Z,13.77
2022-09-13T05:47:40.723Z,16.53
2022-09-13T05:50:10.792Z,18.97
2022-09-13T05:52:42.603Z,16.23
2022-09-13T05:55:11.699Z,19.70
2022-09-13T05:57:38.403Z,24.23
2022-09-13T06:00:05.583Z,21.17
2022-09-13T06:02:32.434Z,25.07
2022-09-13T06:05:01.493Z,22.33
2022-09-13T06:07:28.709Z,19.63
2022-09-13T06:09:58.461Z,20.27
2022-09-13T06:12:29.860Z,19.33
2022-09-13T06:14:56.615Z,18.47
2022-09-13T06:17:23.356Z,17.50
2022-09-13T06:19:52.539Z,25.83
2022-09-13T06:22:21.818Z,15.27
2022-09-13T06:24:48.539Z,18.40
2022-09-13T06:27:15.233Z,15.70
2022-09-13T06:29:44.136Z,17.87
2022-09-13T06:32:10.824Z,16.20
2022-09-13T06:34:37.538Z,24.03
2022-09-13T06:37:05.172Z,19.00
2022-09-13T06:39:34.404Z,20.67
2022-09-13T06:42:01.139Z,17.70
2022-09-13T06:44:30.995Z,21.40
2022-09-13T06:46:59.875Z,16.93
2022-09-13T06:49:26.656Z,25.93
2022-09-13T06:51:55.605Z,18.50
2022-09-13T06:54:24.656Z,18.83
2022-09-13T06:56:51.367Z,23.90
2022-09-13T06:59:18.093Z,25.93
2022-09-13T07:01:45.101Z,19.53
2022-09-13T07:04:19.426Z,14.97
2022-09-13T07:06:47.857Z,17.40
2022-09-13T07:09:21.764Z,15.20
2022-09-13T07:11:52.163Z,18.53
2022-09-13T07:14:21.667Z,18.30
2022-09-13T07:16:48.462Z,20.70
2022-09-13T07:19:33.237Z,17.00
2022-09-13T07:22:00.131Z,16.27
2022-09-13T07:24:27.272Z,16.33
2022-09-13T07:26:54.107Z,17.30
2022-09-13T07:29:23.684Z,15.73
2022-09-13T07:31:55.213Z,15.53
2022-09-13T07:34:25.213Z,16.67
2022-09-13T07:36:53.697Z,18.23
2022-09-13T07:39:22.643Z,18.80
2022-09-13T07:41:50.267Z,18.90
2022-09-13T07:44:17.053Z,14.83
2022-09-13T07:46:44.162Z,15.47
2022-09-13T07:49:13.320Z,13.30
2022-09-13T07:51:43.740Z,14.10
2022-09-13T07:54:15.045Z,15.77
2022-09-13T07:56:42.008Z,13.77
2022-09-13T07:59:13.104Z,18.60
2022-09-13T08:01:41.561Z,13.87
2022-09-13T08:04:18.971Z,15.83
2022-09-13T08:06:46.974Z,9.40
2022-09-13T08:09:14.040Z,11.57
2022-09-13T08:11:41.593Z,14.70
2022-09-13T08:14:10.105Z,11.53
2022-09-13T08:16:41.575Z,14.17
2022-09-13T08:19:13.451Z,10.37
2022-09-13T08:21:43.569Z,8.87
2022-09-13T08:24:17.933Z,8.37
2022-09-13T08:26:44.814Z,7.93
2022-09-13T08:29:11.587Z,9.80
2022-09-13T08:31:38.539Z,11.10
2022-09-13T08:34:05.305Z,9.40
2022-09-13T08:36:32.031Z,8.70
2022-09-13T08:39:02.769Z,6.93
2022-09-13T08:41:46.545Z,11.03
2022-09-13T08:44:34.932Z,6.23
2022-09-13T08:47:31.631Z,14.17
2022-09-13T08:50:21.207Z,8.60
2022-09-13T08:53:06.495Z,6.37
2022-09-13T08:55:33.143Z,9.57
2022-09-13T08:58:36.000Z,7.03
2022-09-13T09:01:22.804Z,10.43
2022-09-13T09:03:55.101Z,9.53
2022-09-13T09:06:22.947Z,4.97
2022-09-13T09:08:59.963Z,5.57
2022-09-13T09:11:35.718Z,6.43
2022-09-13T09:14:34.943Z,6.23
2022-09-13T09:17:08.398Z,8.40
2022-09-13T09:19:40.517Z,7.67
2022-09-13T09:22:22.701Z,5.73
2022-09-13T09:24:51.254Z,7.00
2022-09-13T09:27:19.059Z,3.53
2022-09-13T09:29:47.522Z,3.43
2022-09-13T09:32:23.482Z,5.03
2022-09-13T09:34:53.865Z,2.80
2022-09-13T09:37:24.581Z,3.97
2022-09-13T09:39:54.436Z,5.77
2022-09-13T09:42:25.563Z,5.33
2022-09-13T09:44:56.316Z,4.63
2022-09-13T09:47:29.480Z,5.17
2022-09-13T09:50:10.848Z,5.40
2022-09-13T09:53:00.209Z,5.40
2022-09-13T09:55:33.633Z,5.30
2022-09-13T09:58:06.300Z,6.40
2022-09-13T10:00:35.584Z,3.73
2022-09-13T10:03:04.611Z,6.53
2022-09-13T10:05:32.845Z,2.80
2022-09-13T10:08:04.084Z,5.47
2022-09-13T10:10:44.066Z,2.20
2022-09-13T10:13:17.082Z,4.33
2022-09-13T10:16:00.282Z,3.20
2022-09-13T10:18:43.873Z,3.60
2022-09-13T10:21:17.570Z,4.03
2022-09-13T10:23:45.147Z,2.10
2022-09-13T10:26:19.504Z,4.83
2022-09-13T10:28:52.076Z,3.33
2022-09-13T10:31:21.959Z,5.70
2022-09-13T10:34:01.627Z,3.87
2022-09-13T10:36:52.168Z,4.10
2022-09-13T10:39:21.545Z,4.73
2022-09-13T10:41:56.931Z,3.23
2022-09-13T10:44:39.024Z,3.33
2022-09-13T10:47:07.796Z,2.87
2022-09-13T10:49:48.948Z,4.23
2022-09-13T10:52:37.815Z,6.53
2022-09-13T10:55:24.882Z,7.23
2022-09-13T10:58:03.728Z,2.83
2022-09-13T11:00:42.128Z,4.40
2022-09-13T11:03:27.177Z,4.37
2022-09-13T11:06:30.694Z,2.80
2022-09-13T11:09:15.513Z,4.23
2022-09-13T11:12:03.821Z,3.37
2022-09-13T11:14:56.679Z,2.43
2022-09-13T11:18:08.034Z,3.17
2022-09-13T11:20:59.072Z,4.40
2022-09-13T11:23:56.626Z,5.90
2022-09-13T11:26:38.739Z,4.63
2022-09-13T11:29:27.124Z,4.63
2022-09-13T11:32:34.358Z,4.63
2022-09-13T11:35:12.758Z,2.90
2022-09-13T11:37:54.633Z,6.93
2022-09-13T11:40:44.773Z,5.70
2022-09-13T11:43:17.810Z,6.17
2022-09-13T11:46:03.024Z,3.50
2022-09-13T11:48:51.120Z,5.03
2022-09-13T11:51:51.791Z,5.03
2022-09-13T11:54:18.459Z,4.83
2022-09-13T11:56:49.187Z,7.73
2022-09-13T11:59:30.946Z,4.97
2022-09-13T12:02:10.569Z,4.20
2022-09-13T12:05:23.710Z,4.40
2022-09-13T12:08:21.964Z,5.33
2022-09-13T12:10:51.741Z,5.23
2022-09-13T12:13:29.892Z,4.27
2022-09-13T12:16:00.212Z,4.60
2022-09-13T12:18:30.143Z,4.70
2022-09-13T12:21:24.045Z,8.60
2022-09-13T12:23:56.752Z,4.23
2022-09-13T12:26:30.878Z,11.67
2022-09-13T12:29:10.590Z,7.40
2022-09-13T12:31:37.329Z,4.97
2022-09-13T12:34:06.276Z,7.37
2022-09-13T12:37:11.697Z,3.67
2022-09-13T12:39:43.764Z,5.47
2022-09-13T12:42:36.427Z,3.97
2022-09-13T12:45:23.942Z,4.60
2022-09-13T12:48:05.882Z,9.13
2022-09-13T12:50:54.588Z,3.37
2022-09-13T12:54:07.709Z,4.33
2022-09-13T12:56:40.346Z,4.33
2022-09-13T12:59:35.748Z,4.03
2022-09-13T13:02:04.092Z,3.87
2022-09-13T13:04:35.253Z,6.50
2022-09-13T13:07:22.907Z,9.87
2022-09-13T13:09:53.389Z,6.20
2022-09-13T13:12:32.836Z,7.53
2022-09-13T13:15:00.982Z,8.23
2022-09-13T13:17:42.747Z,7.47
2022-09-13T13:20:47.031Z,6.73
2022-09-13T13:23:19.689Z,5.73
2022-09-13T13:26:24.186Z,11.33
2022-09-13T13:28:53.025Z,8.97
2022-09-13T13:31:29.892Z,6.70
2022-09-13T13:34:09.999Z,6.57
2022-09-13T13:36:39.773Z,8.93
2022-09-13T13:39:12.192Z,6.10
2022-09-13T13:42:00.348Z,12.40
2022-09-13T13:44:27.016Z,16.17
2022-09-13T13:46:57.541Z,6.77
2022-09-13T13:49:32.552Z,11.33
2022-09-13T13:52:11.917Z,6.27
2022-09-13T13:55:00.376Z,5.63
2022-09-13T13:58:22.453Z,6.77
2022-09-13T14:00:50.604Z,8.77
2022-09-13T14:03:23.536Z,7.00
2022-09-13T14:06:20.059Z,9.33
2022-09-13T14:11:37.440Z,6.43
2022-09-13T14:14:23.446Z,8.70
2022-09-13T14:17:17.999Z,7.90
2022-09-13T14:19:48.601Z,7.50
2022-09-13T14:22:25.903Z,5.43
2022-09-13T14:24:58.942Z,12.03
2022-09-13T14:27:31.089Z,10.07
2022-09-13T14:29:59.794Z,8.30
2022-09-13T14:32:35.055Z,6.30
2022-09-13T14:35:23.691Z,8.03
2022-09-13T14:37:52.983Z,9.43
2022-09-13T14:40:26.835Z,4.73
2022-09-13T14:42:54.081Z,7.30
2022-09-13T14:45:35.671Z,8.17
2022-09-13T14:48:05.482Z,9.73
2022-09-13T14:50:40.037Z,10.47
2022-09-13T14:53:15.229Z,9.63
2022-09-13T14:55:56.510Z,6.83
2022-09-13T14:58:45.867Z,10.07
2022-09-13T15:01:14.590Z,7.47
2022-09-13T15:03:44.067Z,7.90
2022-09-13T15:06:24.205Z,7.07
2022-09-13T15:08:53.119Z,11.10
2022-09-13T15:11:34.257Z,6.53
2022-09-13T15:14:24.281Z,9.83
2022-09-13T15:17:03.000Z,7.47
2022-09-13T15:19:31.911Z,10.13
2022-09-13T15:22:27.327Z,5.43
2022-09-13T15:25:01.194Z,11.27
2022-09-13T15:27:31.479Z,7.13
2022-09-13T15:30:00.329Z,6.40
2022-09-13T15:32:42.964Z,8.43
2022-09-13T15:35:17.416Z,8.60
2022-09-13T15:37:46.409Z,7.93
2022-09-13T15:40:23.124Z,6.07
2022-09-13T15:42:50.857Z,9.37
2022-09-13T15:45:20.815Z,6.30
2022-09-13T15:47:48.969Z,8.87
2022-09-13T15:50:20.411Z,8.63
2022-09-13T15:52:47.179Z,11.67
2022-09-13T15:55:16.140Z,12.33
2022-09-13T15:57:43.395Z,10.93
2022-09-13T16:00:15.876Z,8.27
2022-09-13T16:02:44.913Z,8.40
2022-09-13T16:05:14.906Z,8.07
2022-09-13T16:07:48.212Z,9.00
2022-09-13T16:10:17.697Z,7.93
2022-09-13T16:12:44.600Z,7.90
2022-09-13T16:15:12.794Z,7.50
2022-09-13T16:17:39.609Z,10.63
2022-09-13T16:20:08.509Z,6.87
2022-09-13T16:22:53.180Z,8.27
2022-09-13T16:25:20.296Z,10.63
2022-09-13T16:27:46.993Z,8.50
2022-09-13T16:30:20.365Z,8.40
2022-09-13T16:32:49.204Z,11.93
2022-09-13T16:35:17.126Z,9.73
2022-09-13T16:37:44.574Z,9.83
2022-09-13T16:40:11.657Z,10.40
2022-09-13T16:42:39.185Z,12.03
2022-09-13T16:45:06.387Z,9.27
2022-09-13T16:47:33.119Z,9.63
2022-09-13T16:50:02.007Z,9.10
2022-09-13T16:52:29.105Z,9.50
2022-09-13T16:54:56.497Z,8.77
2022-09-13T16:57:24.285Z,10.70
2022-09-13T16:59:54.237Z,12.07
2022-09-13T17:02:25.800Z,8.43
2022-09-13T17:04:53.245Z,10.13
2022-09-13T17:07:20.359Z,11.23
2022-09-13T17:09:49.953Z,9.77
2022-09-13T17:12:19.707Z,7.60
2022-09-13T17:14:50.699Z,7.80
2022-09-13T17:17:17.679Z,11.00
2022-09-13T17:19:45.348Z,8.33
2022-09-13T17:22:12.666Z,11.53
2022-09-13T17:24:43.307Z,9.53
2022-09-13T17:27:10.147Z,10.27
2022-09-13T17:29:37.356Z,9.93
2022-09-13T17:32:06.896Z,12.40
2022-09-13T17:34:34.720Z,7.87
2022-09-13T17:37:03.978Z,7.33
2022-09-13T17:39:31.128Z,8.53
2022-09-13T17:41:58.236Z,10.90
2022-09-13T17:44:25.826Z,7.83
2022-09-13T17:46:52.775Z,8.90
2022-09-13T17:49:20.572Z,11.70
2022-09-13T17:51:51.940Z,8.33
2022-09-13T17:54:19.260Z,8.87
2022-09-13T17:56:48.752Z,9.50
2022-09-13T17:59:19.436Z,8.13
2022-09-13T18:01:51.511Z,10.03
2022-09-13T18:04:21.888Z,8.90
2022-09-13T18:06:51.046Z,8.70
2022-09-13T18:09:19.962Z,12.57
2022-09-13T18:11:47.238Z,9.73
2022-09-13T18:14:15.490Z,10.53
2022-09-13T18:16:43.229Z,8.70
2022-09-13T18:19:12.799Z,11.73
2022-09-13T18:21:42.650Z,11.10
2022-09-13T18:24:11.876Z,10.27
2022-09-13T18:26:38.649Z,8.67
2022-09-13T18:29:09.897Z,8.83
2022-09-13T18:31:42.866Z,9.20
2022-09-13T18:34:13.428Z,10.63
2022-09-13T18:36:41.538Z,10.27
2022-09-13T18:39:16.088Z,11.53
2022-09-13T18:41:43.846Z,9.33
2022-09-13T18:44:13.376Z,9.60
2022-09-13T18:46:43.597Z,10.30
2022-09-13T18:49:11.282Z,10.63
2022-09-13T18:51:47.515Z,7.67
2022-09-13T18:54:18.174Z,10.33
2022-09-13T18:56:48.856Z,7.53
2022-09-13T18:59:16.688Z,11.93
2022-09-13T19:01:49.539Z,8.67
2022-09-13T19:04:19.832Z,10.23
2022-09-13T19:06:56.816Z,8.40
2022-09-13T19:09:26.227Z,8.13
2022-09-13T19:11:53.923Z,10.67
2022-09-13T19:14:24.596Z,9.63
2022-09-13T19:16:56.409Z,10.90
2022-09-13T19:19:23.733Z,9.60
2022-09-13T19:21:50.992Z,9.93
2022-09-13T19:24:19.397Z,10.93
2022-09-13T19:26:51.802Z,10.03
2022-09-13T19:29:24.225Z,9.97
2022-09-13T19:31:56.955Z,10.33
2022-09-13T19:34:25.480Z,9.60
2022-09-13T19:36:58.651Z,12.50
2022-09-13T19:39:30.284Z,9.90
2022-09-13T19:42:01.262Z,10.60
2022-09-13T19:44:29.747Z,15.10
2022-09-13T19:47:36.320Z,10.27
2022-09-13T19:49:45.691Z,11.47
2022-09-13T19:52:15.051Z,10.87
2022-09-13T19:54:42.252Z,13.73
2022-09-13T19:57:11.445Z,13.80
2022-09-13T19:59:38.208Z,10.73
2022-09-13T20:02:08.723Z,10.37
2022-09-13T20:04:38.325Z,11.80
2022-09-13T20:07:12.055Z,9.90
2022-09-13T20:09:39.414Z,12.83
2022-09-13T20:12:12.092Z,11.63
2022-09-13T20:14:40.159Z,12.13
2022-09-13T20:17:07.829Z,12.27
2022-09-13T20:19:47.565Z,10.03
2022-09-13T20:22:17.192Z,10.60
2022-09-13T20:24:44.851Z,11.17
2022-09-13T20:27:12.013Z,10.27
2022-09-13T20:29:39.162Z,12.47
2022-09-13T20:32:05.909Z,9.37
2022-09-13T20:34:35.551Z,11.20
2022-09-13T20:37:03.036Z,11.40
2022-09-13T20:39:30.695Z,11.77
2022-09-13T20:42:00.014Z,11.00
2022-09-13T20:44:34.023Z,12.70
2022-09-13T20:47:01.367Z,13.53
2022-09-13T20:49:30.347Z,10.50
2022-09-13T20:51:57.520Z,13.20
2022-09-13T20:54:26.474Z,12.07
2022-09-13T20:56:53.429Z,10.43
2022-09-13T20:59:21.250Z,16.53
2022-09-13T21:01:50.297Z,13.37
2022-09-13T21:04:17.626Z,13.47
2022-09-13T21:07:02.974Z,9.80
2022-09-13T21:09:29.763Z,11.47
2022-09-13T21:11:56.493Z,10.93
2022-09-13T21:14:23.715Z,10.60
2022-09-13T21:16:50.541Z,11.60
2022-09-13T21:19:19.563Z,10.00
2022-09-13T21:21:46.251Z,12.40
2022-09-13T21:24:13.177Z,12.03
2022-09-13T21:26:42.346Z,12.63
2022-09-13T21:29:12.646Z,13.00
2022-09-13T21:31:42.059Z,10.83
2022-09-13T21:34:15.410Z,12.33
2022-09-13T21:36:42.205Z,10.17
2022-09-13T21:39:11.079Z,14.13
2022-09-13T21:41:37.837Z,12.50
2022-09-13T21:44:04.944Z,16.67
2022-09-13T21:46:35.093Z,14.47
2022-09-13T21:49:03.377Z,13.03
2022-09-13T21:51:35.007Z,16.27
2022-09-13T21:54:06.692Z,13.03
2022-09-13T21:56:37.621Z,14.70
2022-09-13T21:59:06.397Z,16.53
2022-09-13T22:01:35.801Z,17.70
2022-09-13T22:04:02.645Z,14.60
2022-09-13T22:06:33.613Z,16.03
2022-09-13T22:09:04.592Z,12.60
2022-09-13T22:11:39.718Z,14.33
2022-09-13T22:14:07.647Z,13.80
2022-09-13T22:16:36.450Z,13.47
2022-09-13T22:19:13.286Z,15.07
2022-09-13T22:21:43.893Z,17.43
2022-09-13T22:24:14.577Z,17.40
2022-09-13T22:26:43.641Z,16.10
2022-09-13T22:29:12.810Z,14.67
2022-09-13T22:31:40.445Z,15.53
2022-09-13T22:34:07.768Z,14.90
2022-09-13T22:36:34.674Z,14.20
2022-09-13T22:39:01.407Z,15.90
2022-09-13T22:41:31.166Z,16.37
2022-09-13T22:44:01.190Z,16.60
2022-09-13T22:46:30.525Z,19.07
2022-09-13T22:49:01.890Z,18.57
2022-09-13T22:51:28.950Z,17.80
2022-09-13T22:53:57.891Z,17.20
2022-09-13T22:56:25.633Z,18.00
2022-09-13T22:58:59.560Z,16.80
2022-09-13T23:01:29.556Z,17.50
2022-09-13T23:03:59.816Z,21.70
2022-09-13T23:06:29.564Z,21.67
2022-09-13T23:09:00.627Z,18.50
2022-09-13T23:11:34.117Z,18.47
2022-09-13T23:14:02.540Z,19.17
2022-09-13T23:16:34.198Z,25.70
2022-09-13T23:19:03.304Z,21.53
2022-09-13T23:21:34.707Z,24.10
2022-09-13T23:24:04.289Z,21.23
2022-09-13T23:26:31.302Z,22.30
2022-09-13T23:29:01.674Z,21.80
2022-09-13T23:31:30.432Z,20.13
2022-09-13T23:33:58.704Z,20.43
2022-09-13T23:36:30.200Z,19.27
2022-09-13T23:38:57.943Z,14.70
2022-09-13T23:41:25.957Z,14.40
2022-09-13T23:43:53.266Z,13.07
2022-09-13T23:46:24.953Z,11.43
2022-09-13T23:48:51.688Z,10.10
2022-09-13T23:51:23.284Z,10.23
2022-09-13T23:53:50.540Z,8.80
2022-09-13T23:56:17.316Z,9.03
2022-09-13T23:58:44.037Z,7.33
